createdAt,value
2023-05-22T00:01:51.897Z,79.93
2023-05-22T00:04:21.481Z,78.34
2023-05-22T00:06:49.317Z,77.10
2023-05-22T00:09:16.195Z,77.14
2023-05-22T00:11:43.029Z,77.50
2023-05-22T00:14:09.800Z,76.94
2023-05-22T00:16:36.600Z,76.90
2023-05-22T00:19:03.931Z,76.77
2023-05-22T00:21:34.756Z,76.11
2023-05-22T00:24:02.240Z,75.00
2023-05-22T00:26:29.051Z,75.29
2023-05-22T00:28:56.008Z,74.16
2023-05-22T00:31:23.766Z,74.01
2023-05-22T00:33:50.593Z,73.24
2023-05-22T00:36:18.802Z,73.50
2023-05-22T00:38:46.384Z,73.19
2023-05-22T00:41:13.579Z,72.60
2023-05-22T00:43:40.470Z,72.79
2023-05-22T00:46:10.128Z,72.78
2023-05-22T00:48:37.016Z,72.66
2023-05-22T00:51:04.177Z,71.87
2023-05-22T00:53:31.659Z,71.76
2023-05-22T00:55:59.807Z,72.34
2023-05-22T00:58:27.474Z,71.63
2023-05-22T01:00:55.609Z,71.11
2023-05-22T01:03:26.875Z,71.30
2023-05-22T01:05:54.933Z,71.45
2023-05-22T01:08:22.098Z,70.65
2023-05-22T01:10:54.721Z,70.36
2023-05-22T01:13:34.305Z,70.51
2023-05-22T01:16:22.248Z,68.62
2023-05-22T01:18:55.730Z,69.99
2023-05-22T01:21:37.119Z,70.37
2023-05-22T01:24:18.999Z,71.94
2023-05-22T01:27:25.973Z,72.27
2023-05-22T01:30:21.125Z,71.64
2023-05-22T01:32:49.570Z,71.50
2023-05-22T01:35:19.024Z,72.15
2023-05-22T01:37:46.659Z,72.45
2023-05-22T01:40:13.857Z,73.36
2023-05-22T01:42:41.369Z,72.74
2023-05-22T01:45:11.958Z,71.80
2023-05-22T01:47:38.790Z,72.92
2023-05-22T01:50:06.794Z,72.96
2023-05-22T01:52:48.383Z,72.81
2023-05-22T01:55:27.610Z,73.07
2023-05-22T01:58:06.067Z,72.67
2023-05-22T02:00:33.720Z,72.00
2023-05-22T02:03:07.717Z,72.30
2023-05-22T02:05:38.982Z,72.13
2023-05-22T02:08:06.863Z,72.61
2023-05-22T02:10:35.269Z,73.60
2023-05-22T02:13:02.427Z,72.67
2023-05-22T02:15:29.715Z,72.36
2023-05-22T02:18:00.306Z,71.87
2023-05-22T02:20:27.273Z,71.61
2023-05-22T02:22:53.992Z,71.24
2023-05-22T02:25:20.947Z,71.14
2023-05-22T02:27:48.068Z,71.32
2023-05-22T02:30:15.110Z,71.89
2023-05-22T02:32:42.679Z,72.17
2023-05-22T02:35:09.846Z,72.17
2023-05-22T02:37:37.153Z,71.85
2023-05-22T02:40:07.838Z,71.82
2023-05-22T02:42:34.836Z,72.02
2023-05-22T02:45:02.464Z,72.03
2023-05-22T02:47:29.752Z,72.47
2023-05-22T02:49:58.004Z,72.15
2023-05-22T02:52:25.211Z,71.25
2023-05-22T02:54:51.975Z,69.49
2023-05-22T02:57:19.271Z,68.16
2023-05-22T02:59:46.129Z,65.75
2023-05-22T03:02:15.021Z,62.86
2023-05-22T03:04:42.099Z,60.93
2023-05-22T03:07:09.039Z,58.56
2023-05-22T03:09:36.241Z,57.42
2023-05-22T03:12:03.538Z,55.89
2023-05-22T03:14:30.721Z,54.69
2023-05-22T03:16:58.967Z,53.92
2023-05-22T03:19:26.725Z,53.25
2023-05-22T03:21:53.776Z,51.07
2023-05-22T03:24:21.797Z,50.38
2023-05-22T03:26:48.648Z,50.79
2023-05-22T03:29:19.827Z,50.76
2023-05-22T03:31:46.637Z,50.08
2023-05-22T03:34:14.560Z,48.69
2023-05-22T03:36:42.542Z,48.09
2023-05-22T03:39:09.223Z,47.51
2023-05-22T03:41:39.526Z,46.74
2023-05-22T03:44:07.422Z,46.12
2023-05-22T03:46:34.256Z,45.49
2023-05-22T03:49:01.056Z,45.25
2023-05-22T03:51:27.818Z,43.96
2023-05-22T03:53:54.583Z,43.10
2023-05-22T03:56:21.403Z,42.90
2023-05-22T03:58:48.779Z,43.20
2023-05-22T04:01:16.929Z,43.14
2023-05-22T04:03:44.003Z,42.37
2023-05-22T04:06:10.961Z,41.57
2023-05-22T04:08:39.453Z,40.30
2023-05-22T04:11:06.359Z,40.27
2023-05-22T04:13:33.276Z,39.96
2023-05-22T04:16:02.026Z,40.31
2023-05-22T04:18:28.943Z,40.50
2023-05-22T04:20:57.536Z,40.59
2023-05-22T04:23:24.320Z,39.86
2023-05-22T04:25:51.597Z,39.37
2023-05-22T04:28:22.463Z,39.10
2023-05-22T04:30:49.454Z,38.98
2023-05-22T04:33:18.234Z,37.87
2023-05-22T04:35:45.062Z,37.14
2023-05-22T04:38:11.858Z,36.79
2023-05-22T04:40:38.972Z,36.50
2023-05-22T04:43:06.256Z,36.89
2023-05-22T04:45:33.116Z,36.86
2023-05-22T04:48:02.861Z,36.71
2023-05-22T04:50:36.041Z,35.99
2023-05-22T04:53:06.000Z,35.83
2023-05-22T04:55:34.165Z,36.19
2023-05-22T04:58:01.547Z,36.12
2023-05-22T05:00:29.243Z,35.97
2023-05-22T05:02:57.608Z,36.13
2023-05-22T05:05:25.042Z,36.00
2023-05-22T05:07:53.361Z,35.39
2023-05-22T05:10:20.296Z,35.57
2023-05-22T05:12:47.242Z,35.86
2023-05-22T05:15:14.127Z,36.31
2023-05-22T05:17:41.203Z,36.78
2023-05-22T05:20:08.553Z,36.83
2023-05-22T05:22:35.944Z,36.63
2023-05-22T05:25:05.467Z,36.33
2023-05-22T05:27:32.577Z,36.46
2023-05-22T05:29:59.700Z,36.70
2023-05-22T05:32:36.882Z,37.04
2023-05-22T05:35:23.584Z,36.69
2023-05-22T05:38:01.725Z,36.48
2023-05-22T05:40:28.987Z,36.40
2023-05-22T05:42:56.337Z,36.39
2023-05-22T05:45:26.259Z,36.49
2023-05-22T05:47:53.247Z,36.63
2023-05-22T05:50:20.351Z,36.92
2023-05-22T05:52:47.799Z,37.16
2023-05-22T05:55:17.060Z,36.98
2023-05-22T05:57:44.052Z,36.41
2023-05-22T06:00:15.997Z,36.02
2023-05-22T06:02:43.719Z,36.14
2023-05-22T06:18:43.153Z,34.58
2023-05-22T06:21:10.030Z,33.44
2023-05-22T06:23:36.734Z,33.46
2023-05-22T06:26:04.567Z,33.42
2023-05-22T06:28:31.957Z,32.30
2023-05-22T06:30:59.120Z,31.23
2023-05-22T06:33:26.507Z,31.05
2023-05-22T06:35:54.772Z,31.01
2023-05-22T06:38:21.446Z,30.93
2023-05-22T06:40:49.092Z,31.23
2023-05-22T06:43:19.346Z,31.37
2023-05-22T06:45:50.747Z,30.03
2023-05-22T06:48:33.195Z,29.98
2023-05-22T06:51:10.910Z,30.52
2023-05-22T06:53:38.244Z,30.66
2023-05-22T06:56:07.129Z,30.83
2023-05-22T06:58:44.310Z,31.15
2023-05-22T07:01:10.961Z,31.53
2023-05-22T07:03:42.472Z,31.89
2023-05-22T07:08:13.672Z,31.81
2023-05-22T07:10:40.722Z,31.61
2023-05-22T07:13:07.718Z,31.16
2023-05-22T07:15:35.057Z,30.98
2023-05-22T07:18:03.235Z,30.60
2023-05-22T07:20:30.164Z,30.57
2023-05-22T07:23:09.060Z,30.55
2023-05-22T07:25:36.364Z,30.48
2023-05-22T07:28:08.876Z,30.80
2023-05-22T07:30:39.729Z,31.02
2023-05-22T07:33:07.342Z,31.40
2023-05-22T07:35:35.078Z,31.09
2023-05-22T07:38:01.965Z,31.09
2023-05-22T07:40:28.999Z,31.42
2023-05-22T07:42:55.845Z,31.66
2023-05-22T07:45:22.759Z,32.22
2023-05-22T07:47:49.895Z,32.44
2023-05-22T07:50:16.857Z,32.93
2023-05-22T07:52:44.944Z,32.67
2023-05-22T07:55:11.961Z,32.55
2023-05-22T07:57:39.509Z,32.71
2023-05-22T08:00:14.626Z,32.43
2023-05-22T08:02:41.736Z,32.24
2023-05-22T08:05:09.769Z,32.59
2023-05-22T08:07:37.170Z,32.74
2023-05-22T08:10:07.889Z,32.86
2023-05-22T08:12:35.038Z,32.68
2023-05-22T08:15:02.056Z,32.34
2023-05-22T08:17:28.936Z,31.97
2023-05-22T08:19:55.942Z,31.76
2023-05-22T08:22:22.832Z,32.12
2023-05-22T08:24:49.592Z,32.18
2023-05-22T08:27:16.579Z,31.94
2023-05-22T08:29:43.531Z,32.29
2023-05-22T08:32:10.300Z,32.08
2023-05-22T08:34:37.087Z,32.16
2023-05-22T08:37:05.352Z,32.04
2023-05-22T08:39:32.446Z,31.82
2023-05-22T08:41:59.419Z,31.67
2023-05-22T08:44:26.434Z,31.91
2023-05-22T08:46:56.585Z,31.79
2023-05-22T08:49:24.491Z,31.74
2023-05-22T08:51:56.403Z,31.75
2023-05-22T08:54:26.439Z,31.35
2023-05-22T08:56:57.294Z,30.58
2023-05-22T08:59:24.935Z,29.86
2023-05-22T09:01:52.917Z,29.42
2023-05-22T09:04:23.874Z,29.32
2023-05-22T09:06:51.906Z,29.60
2023-05-22T09:09:18.775Z,30.20
2023-05-22T09:11:45.967Z,30.44
2023-05-22T09:14:13.091Z,30.80
2023-05-22T09:16:47.528Z,30.97
2023-05-22T09:19:15.282Z,30.75
2023-05-22T09:21:43.326Z,30.22
2023-05-22T09:24:11.197Z,29.22
2023-05-22T09:26:41.454Z,29.31
2023-05-22T09:29:08.656Z,29.22
2023-05-22T09:31:42.221Z,29.09
2023-05-22T09:34:10.732Z,29.09
2023-05-22T09:36:37.533Z,29.18
2023-05-22T09:39:06.078Z,29.10
2023-05-22T09:41:38.948Z,28.77
2023-05-22T09:44:16.070Z,28.71
2023-05-22T09:46:46.147Z,28.49
2023-05-22T09:49:16.062Z,28.30
2023-05-22T09:51:47.773Z,28.57
2023-05-22T09:54:16.138Z,28.86
2023-05-22T09:56:44.791Z,28.95
2023-05-22T09:59:13.929Z,28.53
2023-05-22T10:01:42.791Z,28.52
2023-05-22T10:04:14.444Z,28.60
2023-05-22T10:06:46.234Z,28.73
2023-05-22T10:09:19.304Z,28.81
2023-05-22T10:11:57.066Z,28.85
2023-05-22T10:14:24.542Z,28.64
2023-05-22T10:16:51.593Z,28.46
2023-05-22T10:19:18.790Z,28.43
2023-05-22T10:21:47.441Z,28.57
2023-05-22T10:24:14.845Z,28.54
2023-05-22T10:26:43.013Z,28.60
2023-05-22T10:29:15.337Z,28.75
2023-05-22T10:32:01.745Z,28.78
2023-05-22T10:34:58.577Z,28.36
2023-05-22T10:37:41.188Z,28.50
2023-05-22T10:40:10.658Z,28.60
2023-05-22T10:42:38.689Z,28.45
2023-05-22T10:45:09.135Z,28.22
2023-05-22T10:47:36.235Z,28.20
2023-05-22T10:50:12.361Z,28.15
2023-05-22T10:52:40.239Z,28.18
2023-05-22T10:55:09.223Z,28.61
2023-05-22T10:57:40.178Z,28.90
2023-05-22T11:00:13.269Z,29.13
2023-05-22T11:02:45.323Z,29.43
2023-05-22T11:05:20.992Z,29.37
2023-05-22T11:07:48.455Z,28.81
2023-05-22T11:10:26.208Z,28.77
2023-05-22T11:13:12.409Z,28.67
2023-05-22T11:15:45.095Z,28.54
2023-05-22T11:18:12.064Z,28.47
2023-05-22T11:20:40.188Z,28.45
2023-05-22T11:23:08.235Z,28.28
2023-05-22T11:25:36.670Z,28.08
2023-05-22T11:28:05.814Z,28.01
2023-05-22T11:30:34.257Z,27.77
2023-05-22T11:33:02.157Z,27.41
2023-05-22T11:35:29.531Z,27.06
2023-05-22T11:37:58.929Z,27.45
2023-05-22T11:40:29.525Z,27.31
2023-05-22T11:42:56.987Z,27.34
2023-05-22T11:45:24.144Z,27.44
2023-05-22T11:47:51.507Z,27.08
2023-05-22T11:50:29.268Z,27.26
2023-05-22T11:53:02.915Z,27.39
2023-05-22T11:55:30.352Z,26.86
2023-05-22T11:57:58.360Z,26.74
2023-05-22T12:00:26.267Z,26.97
2023-05-22T12:02:55.080Z,27.11
2023-05-22T12:05:22.468Z,27.24
2023-05-22T12:07:49.931Z,27.26
2023-05-22T12:10:17.296Z,27.30
2023-05-22T12:12:45.011Z,27.18
2023-05-22T12:15:12.674Z,27.16
2023-05-22T12:17:40.263Z,26.95
2023-05-22T12:20:07.963Z,27.13
2023-05-22T12:22:42.301Z,26.78
2023-05-22T12:25:14.272Z,26.83
2023-05-22T12:27:44.351Z,27.06
2023-05-22T12:30:15.453Z,26.91
2023-05-22T12:32:50.808Z,26.74
2023-05-22T12:35:19.493Z,26.42
2023-05-22T12:37:51.503Z,26.19
2023-05-22T12:40:19.280Z,25.65
2023-05-22T12:42:47.954Z,25.62
2023-05-22T12:45:15.482Z,25.46
2023-05-22T12:47:42.960Z,25.46
2023-05-22T12:50:10.559Z,25.40
2023-05-22T12:52:37.870Z,25.38
2023-05-22T12:55:05.599Z,25.44
2023-05-22T12:57:32.834Z,25.59
2023-05-22T13:00:00.279Z,25.28
2023-05-22T13:02:31.136Z,25.42
2023-05-22T13:05:02.271Z,25.64
2023-05-22T13:07:29.677Z,25.77
2023-05-22T13:09:56.981Z,25.90
2023-05-22T13:12:24.486Z,26.04
2023-05-22T13:14:51.895Z,26.08
2023-05-22T13:17:19.135Z,25.83
2023-05-22T13:19:46.548Z,25.20
2023-05-22T13:22:14.853Z,25.32
2023-05-22T13:24:42.142Z,25.01
2023-05-22T13:27:09.498Z,24.92
2023-05-22T13:29:36.773Z,25.18
2023-05-22T13:32:04.741Z,25.56
2023-05-22T13:34:32.085Z,25.85
2023-05-22T13:36:59.547Z,25.80
2023-05-22T13:39:26.851Z,25.91
2023-05-22T13:41:54.319Z,25.61
2023-05-22T13:44:21.989Z,25.57
2023-05-22T13:46:49.466Z,25.38
2023-05-22T13:49:17.216Z,25.33
2023-05-22T13:51:44.520Z,25.18
2023-05-22T13:54:11.844Z,24.72
2023-05-22T13:56:39.080Z,24.68
2023-05-22T13:59:09.161Z,24.77
2023-05-22T14:01:36.837Z,24.92
2023-05-22T14:04:04.696Z,24.91
2023-05-22T14:06:31.985Z,24.81
2023-05-22T14:08:59.897Z,24.57
2023-05-22T14:11:27.876Z,24.69
2023-05-22T14:13:55.175Z,24.78
2023-05-22T14:16:22.833Z,24.58
2023-05-22T14:18:50.461Z,24.20
2023-05-22T14:21:18.931Z,24.10
2023-05-22T14:23:46.373Z,24.18
2023-05-22T14:26:14.450Z,24.31
2023-05-22T14:28:42.367Z,24.15
2023-05-22T14:31:09.752Z,24.00
2023-05-22T14:33:37.497Z,23.92
2023-05-22T14:36:05.483Z,23.80
2023-05-22T14:38:33.796Z,23.81
2023-05-22T14:41:01.688Z,23.59
2023-05-22T14:43:29.130Z,23.35
2023-05-22T14:45:58.095Z,23.39
2023-05-22T14:48:26.565Z,23.34
2023-05-22T14:50:54.121Z,23.29
2023-05-22T14:53:21.757Z,23.31
2023-05-22T14:55:49.304Z,23.07
2023-05-22T14:58:16.604Z,23.22
2023-05-22T15:00:45.154Z,23.29
2023-05-22T15:03:13.545Z,23.52
2023-05-22T15:05:40.986Z,23.68
2023-05-22T15:08:08.414Z,23.94
2023-05-22T15:10:36.490Z,24.14
2023-05-22T15:13:03.990Z,24.24
2023-05-22T15:15:31.387Z,24.12
2023-05-22T15:18:02.618Z,23.99
2023-05-22T15:20:31.102Z,24.10
2023-05-22T15:23:00.008Z,24.28
2023-05-22T15:25:27.774Z,24.38
2023-05-22T15:27:55.051Z,24.33
2023-05-22T15:30:23.500Z,24.21
2023-05-22T15:32:50.933Z,24.44
2023-05-22T15:35:18.196Z,24.76
2023-05-22T15:37:45.733Z,24.88
2023-05-22T15:40:16.384Z,24.80
2023-05-22T15:42:43.769Z,24.93
2023-05-22T15:45:11.201Z,24.75
2023-05-22T15:47:38.509Z,24.65
2023-05-22T15:50:06.122Z,24.72
2023-05-22T15:52:33.374Z,24.83
2023-05-22T15:55:00.768Z,24.90
2023-05-22T15:57:30.989Z,24.98
2023-05-22T15:59:58.241Z,25.20
2023-05-22T16:02:25.637Z,25.80
2023-05-22T16:04:52.967Z,27.11
2023-05-22T16:07:20.710Z,28.31
2023-05-22T16:09:50.219Z,28.64
2023-05-22T16:12:18.387Z,28.74
2023-05-22T16:14:45.794Z,28.92
2023-05-22T16:17:13.686Z,29.46
2023-05-22T16:19:41.062Z,30.08
2023-05-22T16:22:08.536Z,30.17
2023-05-22T16:24:35.966Z,30.49
2023-05-22T16:27:03.549Z,30.26
2023-05-22T16:29:32.572Z,29.98
2023-05-22T16:32:00.107Z,30.18
2023-05-22T16:34:27.455Z,30.59
2023-05-22T16:36:54.720Z,30.78
2023-05-22T16:39:22.054Z,30.95
2023-05-22T16:41:51.507Z,31.08
2023-05-22T16:44:20.295Z,31.43
2023-05-22T16:46:49.582Z,31.89
2023-05-22T16:49:17.142Z,32.13
2023-05-22T16:51:44.656Z,32.15
2023-05-22T16:54:11.938Z,31.98
2023-05-22T16:56:39.257Z,32.34
2023-05-22T16:59:06.716Z,32.52
2023-05-22T17:01:34.235Z,32.62
2023-05-22T17:04:01.559Z,32.94
2023-05-22T17:06:30.068Z,33.26
2023-05-22T17:08:57.824Z,33.34
2023-05-22T17:11:26.132Z,33.41
2023-05-22T17:13:53.525Z,33.78
2023-05-22T17:16:21.192Z,34.04
2023-05-22T17:18:48.580Z,34.17
2023-05-22T17:21:17.552Z,34.34
2023-05-22T17:23:44.918Z,34.33
2023-05-22T17:26:14.266Z,34.52
2023-05-22T17:28:41.556Z,34.99
2023-05-22T17:31:09.024Z,35.18
2023-05-22T17:33:36.340Z,35.31
2023-05-22T17:36:04.020Z,35.49
2023-05-22T17:38:31.388Z,35.81
2023-05-22T17:41:00.852Z,35.81
2023-05-22T17:43:28.249Z,36.04
2023-05-22T17:45:55.618Z,36.21
2023-05-22T17:48:27.303Z,36.38
2023-05-22T17:50:54.893Z,36.56
2023-05-22T17:53:22.421Z,36.82
2023-05-22T17:55:52.304Z,37.03
2023-05-22T17:58:20.618Z,37.11
2023-05-22T18:00:48.798Z,37.30
2023-05-22T18:03:20.368Z,37.55
2023-05-22T18:05:51.321Z,37.61
2023-05-22T18:08:19.142Z,37.65
2023-05-22T18:10:46.449Z,37.63
2023-05-22T18:13:13.755Z,37.54
2023-05-22T18:15:41.296Z,37.68
2023-05-22T18:18:10.612Z,37.67
2023-05-22T18:20:38.900Z,37.74
2023-05-22T18:23:06.639Z,37.93
2023-05-22T18:25:34.267Z,37.96
2023-05-22T18:28:01.604Z,38.27
2023-05-22T18:30:29.124Z,38.43
2023-05-22T18:32:56.574Z,38.44
2023-05-22T18:35:23.941Z,38.82
2023-05-22T18:37:51.464Z,39.02
2023-05-22T18:40:18.813Z,39.18
2023-05-22T18:42:46.132Z,39.34
2023-05-22T18:45:13.581Z,39.42
2023-05-22T18:47:41.575Z,39.53
2023-05-22T18:50:09.786Z,39.60
2023-05-22T18:52:38.005Z,39.64
2023-05-22T18:55:07.397Z,39.81
2023-05-22T18:57:34.718Z,39.87
2023-05-22T19:00:02.068Z,39.70
2023-05-22T19:14:40.212Z,38.89
2023-05-22T19:35:54.815Z,39.49
2023-05-22T19:38:22.701Z,39.97
2023-05-22T19:40:49.976Z,41.04
2023-05-22T19:43:16.780Z,41.90
2023-05-22T19:45:44.635Z,42.64
2023-05-22T19:48:11.365Z,43.35
2023-05-22T19:50:38.709Z,44.14
2023-05-22T19:53:05.423Z,44.57
2023-05-22T19:55:32.152Z,44.48
2023-05-22T19:57:58.726Z,44.53
2023-05-22T20:00:30.662Z,44.56
2023-05-22T20:02:59.260Z,45.04
2023-05-22T20:05:26.026Z,44.98
2023-05-22T20:07:53.655Z,45.20
2023-05-22T20:10:20.330Z,45.44
2023-05-22T20:12:47.028Z,45.19
2023-05-22T20:15:14.981Z,45.38
2023-05-22T20:17:46.701Z,45.13
2023-05-22T20:20:13.487Z,45.01
2023-05-22T20:22:39.955Z,44.91
2023-05-22T20:25:08.155Z,44.88
2023-05-22T20:27:35.063Z,44.95
2023-05-22T20:30:02.065Z,44.76
2023-05-22T20:32:29.425Z,44.87
2023-05-22T20:34:56.241Z,44.76
2023-05-22T20:37:23.237Z,44.93
2023-05-22T20:39:51.226Z,45.30
2023-05-22T20:42:19.798Z,45.06
2023-05-22T20:44:46.849Z,45.32
2023-05-22T20:47:13.657Z,45.29
2023-05-22T20:49:41.968Z,45.49
2023-05-22T20:52:09.451Z,45.46
2023-05-22T20:54:36.184Z,45.32
2023-05-22T20:57:03.176Z,45.24
2023-05-22T20:59:30.386Z,45.28
2023-05-22T21:01:57.286Z,45.61
2023-05-22T21:04:25.427Z,45.72
2023-05-22T21:06:52.164Z,45.71
2023-05-22T21:09:19.072Z,45.78
2023-05-22T21:11:46.299Z,45.85
2023-05-22T21:14:13.641Z,46.06
2023-05-22T21:16:40.441Z,46.18
2023-05-22T21:19:07.037Z,46.19
2023-05-22T21:21:35.647Z,46.41
2023-05-22T21:24:03.337Z,46.40
2023-05-22T21:26:30.618Z,46.47
2023-05-22T21:28:57.409Z,46.61
2023-05-22T21:31:24.026Z,46.73
2023-05-22T21:33:50.777Z,47.07
2023-05-22T21:36:17.411Z,47.13
2023-05-22T21:38:44.373Z,47.00
2023-05-22T21:41:11.933Z,47.14
2023-05-22T21:43:38.767Z,47.41
2023-05-22T21:46:05.245Z,47.86
2023-05-22T21:48:33.121Z,47.90
2023-05-22T21:50:59.886Z,48.41
2023-05-22T21:53:26.563Z,48.37
2023-05-22T21:55:52.955Z,48.97
2023-05-22T21:58:19.347Z,49.22
2023-05-22T22:00:46.036Z,49.58
2023-05-22T22:03:12.687Z,49.77
2023-05-22T22:05:39.556Z,49.88
2023-05-22T22:08:06.030Z,50.67
2023-05-22T22:10:32.801Z,51.08
2023-05-22T22:13:01.104Z,51.66
2023-05-22T22:15:27.846Z,52.31
2023-05-22T22:17:59.381Z,52.60
2023-05-22T22:20:42.589Z,52.73
2023-05-22T22:23:11.316Z,52.94
2023-05-22T22:25:38.335Z,53.40
2023-05-22T22:28:05.336Z,53.71
2023-05-22T22:30:32.000Z,53.83
2023-05-22T22:32:59.267Z,54.43
2023-05-22T22:35:26.034Z,55.03
2023-05-22T22:37:52.585Z,55.40
2023-05-22T22:40:19.202Z,55.76
2023-05-22T22:42:45.908Z,56.29
2023-05-22T22:45:13.931Z,57.15
2023-05-22T22:47:40.900Z,57.50
2023-05-22T22:50:09.415Z,57.92
2023-05-22T22:52:37.179Z,58.74
2023-05-22T22:55:05.526Z,59.68
2023-05-22T22:57:32.622Z,60.63
2023-05-22T22:59:59.215Z,61.29
2023-05-22T23:02:25.772Z,61.66
2023-05-22T23:04:52.277Z,62.11
2023-05-22T23:07:19.220Z,62.88
2023-05-22T23:09:46.350Z,62.87
2023-05-22T23:12:12.827Z,63.06
2023-05-22T23:14:39.337Z,63.46
2023-05-22T23:17:11.896Z,63.98
2023-05-22T23:19:38.460Z,64.76
2023-05-22T23:22:05.301Z,65.24
2023-05-22T23:24:31.854Z,65.50
2023-05-22T23:26:58.506Z,66.00
2023-05-22T23:29:25.611Z,66.40
2023-05-22T23:31:52.603Z,66.69
2023-05-22T23:34:19.813Z,67.10
2023-05-22T23:36:46.531Z,67.11
2023-05-22T23:39:13.186Z,67.25
2023-05-22T23:41:39.852Z,67.83
2023-05-22T23:44:07.653Z,68.09
2023-05-22T23:46:36.646Z,68.03
2023-05-22T23:49:03.177Z,68.29
2023-05-22T23:51:30.589Z,68.34
2023-05-22T23:53:57.158Z,68.48
2023-05-22T23:56:23.776Z,68.59
2023-05-22T23:58:50.221Z,68.91
